createdAt,value
2023-05-19T00:00:19.685Z,95450.00
2023-05-19T00:01:19.719Z,95448.00
2023-05-19T00:02:19.765Z,95448.00
2023-05-19T00:03:19.960Z,95448.00
2023-05-19T00:04:19.827Z,95446.00
2023-05-19T00:05:19.974Z,95450.00
2023-05-19T00:06:20.023Z,95444.00
2023-05-19T00:07:19.970Z,95444.00
2023-05-19T00:08:20.051Z,95444.00
2023-05-19T00:09:20.061Z,95444.00
2023-05-19T00:10:20.171Z,95440.00
2023-05-19T00:11:20.143Z,95440.00
2023-05-19T00:12:20.214Z,95444.00
2023-05-19T00:13:20.204Z,95438.00
2023-05-19T00:14:20.207Z,95440.00
2023-05-19T00:15:20.201Z,95442.00
2023-05-19T00:16:20.290Z,95442.00
2023-05-19T00:17:20.257Z,95438.00
2023-05-19T00:18:20.317Z,95440.00
2023-05-19T00:19:20.402Z,95444.00
2023-05-19T00:20:20.356Z,95444.00
2023-05-19T00:21:20.293Z,95448.00
2023-05-19T00:22:20.292Z,95448.00
2023-05-19T00:23:20.335Z,95448.00
2023-05-19T00:24:20.328Z,95450.00
2023-05-19T00:25:20.331Z,95448.00
2023-05-19T00:26:20.302Z,95452.00
2023-05-19T00:27:20.337Z,95450.00
2023-05-19T00:28:20.379Z,95450.00
2023-05-19T00:29:20.459Z,95446.00
2023-05-19T00:30:20.424Z,95448.00
2023-05-19T00:31:20.456Z,95444.00
2023-05-19T00:32:20.425Z,95444.00
2023-05-19T00:33:20.425Z,95446.00
2023-05-19T00:34:20.402Z,95446.00
2023-05-19T00:35:20.377Z,95448.00
2023-05-19T00:36:20.382Z,95448.00
2023-05-19T00:37:20.349Z,95446.00
2023-05-19T00:38:20.381Z,95448.00
2023-05-19T00:39:20.392Z,95450.00
2023-05-19T00:40:20.389Z,95448.00
2023-05-19T00:41:20.343Z,95446.00
2023-05-19T00:42:20.327Z,95442.00
2023-05-19T00:43:20.343Z,95444.00
2023-05-19T00:44:20.382Z,95442.00
2023-05-19T00:45:20.338Z,95442.00
2023-05-19T00:46:20.415Z,95444.00
2023-05-19T00:47:20.297Z,95438.00
2023-05-19T00:48:20.300Z,95440.00
2023-05-19T00:49:20.283Z,95442.00
2023-05-19T00:50:20.292Z,95440.00
2023-05-19T00:51:20.266Z,95438.00
2023-05-19T00:52:20.260Z,95438.00
2023-05-19T00:53:20.248Z,95436.00
2023-05-19T00:54:20.209Z,95436.00
2023-05-19T00:55:20.324Z,95438.00
2023-05-19T00:56:20.213Z,95430.00
2023-05-19T00:57:20.243Z,95434.00
2023-05-19T00:58:20.223Z,95432.00
2023-05-19T00:59:20.211Z,95432.00
2023-05-19T01:00:20.208Z,95432.00
2023-05-19T01:01:20.249Z,95432.00
2023-05-19T01:02:20.239Z,95432.00
2023-05-19T01:03:20.358Z,95432.00
2023-05-19T01:04:20.159Z,95434.00
2023-05-19T01:05:20.186Z,95432.00
2023-05-19T01:06:20.213Z,95436.00
2023-05-19T01:07:20.244Z,95434.00
2023-05-19T01:08:20.321Z,95436.00
2023-05-19T01:09:20.312Z,95436.00
2023-05-19T01:10:20.413Z,95434.00
2023-05-19T01:11:20.405Z,95436.00
2023-05-19T01:12:20.464Z,95436.00
2023-05-19T01:13:20.512Z,95434.00
2023-05-19T01:14:20.550Z,95434.00
2023-05-19T01:15:20.585Z,95432.00
2023-05-19T01:16:20.675Z,95432.00
2023-05-19T01:17:20.675Z,95434.00
2023-05-19T01:18:20.670Z,95434.00
2023-05-19T01:19:20.857Z,95434.00
2023-05-19T01:20:20.656Z,95430.00
2023-05-19T01:21:20.683Z,95430.00
2023-05-19T01:22:20.698Z,95432.00
2023-05-19T01:23:20.689Z,95430.00
2023-05-19T01:24:20.657Z,95430.00
2023-05-19T01:25:20.708Z,95430.00
2023-05-19T01:26:20.692Z,95432.00
2023-05-19T01:27:20.621Z,95436.00
2023-05-19T01:28:20.649Z,95432.00
2023-05-19T01:29:20.603Z,95430.00
2023-05-19T01:30:20.649Z,95430.00
2023-05-19T01:31:20.640Z,95432.00
2023-05-19T01:32:20.688Z,95432.00
2023-05-19T01:33:20.599Z,95434.00
2023-05-19T01:34:20.606Z,95430.00
2023-05-19T01:35:20.580Z,95432.00
2023-05-19T01:36:20.627Z,95432.00
2023-05-19T01:37:20.570Z,95430.00
2023-05-19T01:38:20.535Z,95429.00
2023-05-19T01:39:20.553Z,95432.00
2023-05-19T01:40:20.628Z,95427.00
2023-05-19T01:41:20.560Z,95430.00
2023-05-19T01:42:20.545Z,95430.00
2023-05-19T01:43:20.569Z,95430.00
2023-05-19T01:44:20.543Z,95429.00
2023-05-19T01:45:20.555Z,95434.00
2023-05-19T01:46:20.505Z,95430.00
2023-05-19T01:47:20.485Z,95430.00
2023-05-19T01:48:20.543Z,95430.00
2023-05-19T01:49:20.517Z,95436.00
2023-05-19T01:50:20.511Z,95434.00
2023-05-19T01:51:20.530Z,95432.00
2023-05-19T01:52:20.456Z,95434.00
2023-05-19T01:53:20.461Z,95436.00
2023-05-19T01:54:20.433Z,95432.00
2023-05-19T01:55:20.501Z,95432.00
2023-05-19T01:56:20.469Z,95430.00
2023-05-19T01:57:20.451Z,95434.00
2023-05-19T01:58:20.442Z,95432.00
2023-05-19T01:59:20.409Z,95434.00
2023-05-19T02:00:21.327Z,95434.00
2023-05-19T02:01:20.439Z,95436.00
2023-05-19T02:02:20.449Z,95434.00
2023-05-19T02:03:20.403Z,95436.00
2023-05-19T02:04:20.443Z,95436.00
2023-05-19T02:05:20.360Z,95440.00
2023-05-19T02:06:20.424Z,95440.00
2023-05-19T02:07:20.406Z,95438.00
2023-05-19T02:08:20.421Z,95442.00
2023-05-19T02:09:20.457Z,95436.00
2023-05-19T02:10:20.487Z,95440.00
2023-05-19T02:11:20.504Z,95440.00
2023-05-19T02:12:20.539Z,95436.00
2023-05-19T02:13:20.552Z,95436.00
2023-05-19T02:14:20.615Z,95440.00
2023-05-19T02:15:20.681Z,95440.00
2023-05-19T02:16:20.867Z,95436.00
2023-05-19T02:17:20.745Z,95440.00
2023-05-19T02:18:20.801Z,95442.00
2023-05-19T02:19:21.009Z,95442.00
2023-05-19T02:20:20.877Z,95444.00
2023-05-19T02:21:20.898Z,95446.00
2023-05-19T02:22:20.874Z,95442.00
2023-05-19T02:23:20.911Z,95444.00
2023-05-19T02:24:20.925Z,95442.00
2023-05-19T02:25:20.951Z,95438.00
2023-05-19T02:26:20.957Z,95438.00
2023-05-19T02:27:20.951Z,95440.00
2023-05-19T02:28:21.002Z,95436.00
2023-05-19T02:29:21.080Z,95440.00
2023-05-19T02:30:21.083Z,95440.00
2023-05-19T02:31:21.164Z,95442.00
2023-05-19T02:32:21.142Z,95442.00
2023-05-19T02:33:21.133Z,95446.00
2023-05-19T02:34:21.192Z,95446.00
2023-05-19T02:35:21.179Z,95446.00
2023-05-19T02:36:21.206Z,95448.00
2023-05-19T02:37:21.194Z,95444.00
2023-05-19T02:38:21.169Z,95442.00
2023-05-19T02:39:21.198Z,95444.00
2023-05-19T02:40:21.188Z,95440.00
2023-05-19T02:41:21.146Z,95444.00
2023-05-19T02:42:21.155Z,95440.00
2023-05-19T02:43:21.165Z,95436.00
2023-05-19T02:44:21.116Z,95438.00
2023-05-19T02:45:21.206Z,95438.00
2023-05-19T02:46:21.150Z,95438.00
2023-05-19T02:47:21.248Z,95438.00
2023-05-19T02:48:21.213Z,95436.00
2023-05-19T02:49:21.256Z,95440.00
2023-05-19T02:50:21.223Z,95436.00
2023-05-19T02:51:21.285Z,95434.00
2023-05-19T02:52:21.237Z,95434.00
2023-05-19T02:53:21.227Z,95436.00
2023-05-19T02:54:21.231Z,95436.00
2023-05-19T02:55:21.234Z,95436.00
2023-05-19T02:56:21.213Z,95438.00
2023-05-19T02:57:21.250Z,95440.00
2023-05-19T02:58:21.180Z,95434.00
2023-05-19T02:59:21.176Z,95434.00
2023-05-19T03:00:21.234Z,95434.00
2023-05-19T03:01:21.351Z,95434.00
2023-05-19T03:02:21.298Z,95432.00
2023-05-19T03:03:21.363Z,95434.00
2023-05-19T03:04:21.312Z,95430.00
2023-05-19T03:05:21.745Z,95430.00
2023-05-19T03:06:21.424Z,95432.00
2023-05-19T03:07:21.496Z,95430.00
2023-05-19T03:08:21.599Z,95430.00
2023-05-19T03:09:21.618Z,95427.00
2023-05-19T03:10:21.670Z,95423.00
2023-05-19T03:11:21.680Z,95425.00
2023-05-19T03:12:21.847Z,95427.00
2023-05-19T03:13:21.808Z,95425.00
2023-05-19T03:14:21.863Z,95427.00
2023-05-19T03:15:21.859Z,95429.00
2023-05-19T03:16:22.782Z,95423.00
2023-05-19T03:17:22.047Z,95425.00
2023-05-19T03:18:21.985Z,95423.00
2023-05-19T03:19:22.131Z,95423.00
2023-05-19T03:20:22.044Z,95425.00
2023-05-19T03:21:22.083Z,95423.00
2023-05-19T03:22:22.162Z,95423.00
2023-05-19T03:23:22.198Z,95427.00
2023-05-19T03:24:22.229Z,95423.00
2023-05-19T03:25:22.297Z,95427.00
2023-05-19T03:26:22.294Z,95423.00
2023-05-19T03:27:22.387Z,95423.00
2023-05-19T03:28:22.410Z,95423.00
2023-05-19T03:29:22.389Z,95425.00
2023-05-19T03:30:22.508Z,95425.00
2023-05-19T03:31:22.380Z,95429.00
2023-05-19T03:32:22.454Z,95423.00
2023-05-19T03:33:22.612Z,95425.00
2023-05-19T03:34:22.410Z,95423.00
2023-05-19T03:35:22.453Z,95423.00
2023-05-19T03:36:22.448Z,95425.00
2023-05-19T03:37:22.457Z,95425.00
2023-05-19T03:38:22.534Z,95423.00
2023-05-19T03:39:22.558Z,95421.00
2023-05-19T03:40:22.593Z,95419.00
2023-05-19T03:41:22.653Z,95421.00
2023-05-19T03:42:22.677Z,95421.00
2023-05-19T03:43:22.695Z,95421.00
2023-05-19T03:44:22.753Z,95419.00
2023-05-19T03:45:22.722Z,95421.00
2023-05-19T03:46:22.846Z,95415.00
2023-05-19T03:47:22.767Z,95423.00
2023-05-19T03:48:22.752Z,95421.00
2023-05-19T03:49:22.771Z,95421.00
2023-05-19T03:50:22.777Z,95419.00
2023-05-19T03:51:22.835Z,95421.00
2023-05-19T03:52:22.881Z,95421.00
2023-05-19T03:53:22.974Z,95419.00
2023-05-19T03:54:23.027Z,95423.00
2023-05-19T03:55:23.095Z,95421.00
2023-05-19T03:56:23.038Z,95427.00
2023-05-19T03:57:23.090Z,95429.00
2023-05-19T03:58:23.100Z,95429.00
2023-05-19T03:59:23.095Z,95425.00
2023-05-19T04:00:23.124Z,95429.00
2023-05-19T04:01:23.106Z,95430.00
2023-05-19T04:02:23.216Z,95430.00
2023-05-19T04:03:23.268Z,95429.00
2023-05-19T04:04:23.247Z,95430.00
2023-05-19T04:05:23.286Z,95427.00
2023-05-19T04:06:23.300Z,95429.00
2023-05-19T04:07:23.395Z,95423.00
2023-05-19T04:08:23.437Z,95421.00
2023-05-19T04:09:23.506Z,95421.00
2023-05-19T04:10:23.571Z,95417.00
2023-05-19T04:11:23.598Z,95423.00
2023-05-19T04:12:23.662Z,95421.00
2023-05-19T04:13:23.742Z,95419.00
2023-05-19T04:14:23.806Z,95419.00
2023-05-19T04:15:23.850Z,95421.00
2023-05-19T04:16:24.051Z,95421.00
2023-05-19T04:17:23.982Z,95421.00
2023-05-19T04:18:24.474Z,95421.00
2023-05-19T04:19:24.174Z,95421.00
2023-05-19T04:20:24.189Z,95421.00
2023-05-19T04:21:24.227Z,95421.00
2023-05-19T04:22:24.267Z,95425.00
2023-05-19T04:23:24.307Z,95427.00
2023-05-19T04:24:24.375Z,95425.00
2023-05-19T04:25:24.438Z,95427.00
2023-05-19T04:26:25.256Z,95429.00
2023-05-19T04:27:24.494Z,95429.00
2023-05-19T04:28:24.518Z,95429.00
2023-05-19T04:29:24.529Z,95429.00
2023-05-19T04:30:24.546Z,95432.00
2023-05-19T04:31:25.278Z,95432.00
2023-05-19T04:32:24.593Z,95434.00
2023-05-19T04:33:24.599Z,95434.00
2023-05-19T04:34:24.580Z,95432.00
2023-05-19T04:35:24.634Z,95430.00
2023-05-19T04:36:24.663Z,95430.00
2023-05-19T04:37:24.662Z,95432.00
2023-05-19T04:38:24.712Z,95434.00
2023-05-19T04:39:24.733Z,95432.00
2023-05-19T04:40:24.743Z,95434.00
2023-05-19T04:41:24.780Z,95434.00
2023-05-19T04:42:24.842Z,95436.00
2023-05-19T04:43:24.794Z,95436.00
2023-05-19T04:44:24.792Z,95440.00
2023-05-19T04:45:24.814Z,95438.00
2023-05-19T04:46:24.860Z,95436.00
2023-05-19T04:47:24.866Z,95434.00
2023-05-19T04:48:24.847Z,95436.00
2023-05-19T04:49:24.862Z,95429.00
2023-05-19T04:50:24.924Z,95430.00
2023-05-19T04:51:24.933Z,95432.00
2023-05-19T04:52:24.964Z,95430.00
2023-05-19T04:53:24.948Z,95432.00
2023-05-19T04:54:25.004Z,95432.00
2023-05-19T04:55:25.130Z,95438.00
2023-05-19T04:56:25.080Z,95436.00
2023-05-19T04:57:25.076Z,95438.00
2023-05-19T04:58:25.091Z,95432.00
2023-05-19T04:59:25.132Z,95434.00
2023-05-19T05:01:52.915Z,95427.00
2023-05-19T05:02:45.179Z,95427.00
2023-05-19T05:03:45.263Z,95432.00
2023-05-19T05:04:45.152Z,95432.00
2023-05-19T05:05:45.168Z,95430.00
2023-05-19T05:06:45.119Z,95434.00
2023-05-19T05:07:45.104Z,95436.00
2023-05-19T05:08:45.160Z,95434.00
2023-05-19T05:09:45.165Z,95436.00
2023-05-19T05:10:45.141Z,95430.00
2023-05-19T05:11:45.246Z,95430.00
2023-05-19T05:12:45.112Z,95430.00
2023-05-19T05:13:45.102Z,95429.00
2023-05-19T05:14:45.121Z,95430.00
2023-05-19T05:15:45.142Z,95432.00
2023-05-19T05:16:45.212Z,95429.00
2023-05-19T05:17:45.141Z,95430.00
2023-05-19T05:18:45.218Z,95430.00
2023-05-19T05:19:45.034Z,95430.00
2023-05-19T05:20:45.038Z,95432.00
2023-05-19T05:21:45.082Z,95434.00
2023-05-19T05:22:45.094Z,95430.00
2023-05-19T05:23:45.122Z,95430.00
2023-05-19T05:24:45.161Z,95427.00
2023-05-19T05:25:45.241Z,95425.00
2023-05-19T05:26:45.291Z,95425.00
2023-05-19T05:27:45.321Z,95425.00
2023-05-19T05:28:45.412Z,95427.00
2023-05-19T05:29:45.452Z,95429.00
2023-05-19T05:30:45.433Z,95425.00
2023-05-19T05:31:45.470Z,95427.00
2023-05-19T05:32:45.587Z,95423.00
2023-05-19T05:33:45.587Z,95425.00
2023-05-19T05:34:45.507Z,95425.00
2023-05-19T05:35:45.555Z,95423.00
2023-05-19T05:36:45.596Z,95423.00
2023-05-19T05:37:45.709Z,95421.00
2023-05-19T05:38:45.708Z,95423.00
2023-05-19T05:39:45.782Z,95423.00
2023-05-19T05:40:45.789Z,95419.00
2023-05-19T05:41:45.843Z,95417.00
2023-05-19T05:42:45.848Z,95419.00
2023-05-19T05:43:45.855Z,95421.00
2023-05-19T05:44:45.874Z,95417.00
2023-05-19T05:45:46.025Z,95423.00
2023-05-19T05:46:54.766Z,95417.00
2023-05-19T05:47:46.381Z,95419.00
2023-05-19T05:48:46.110Z,95417.00
2023-05-19T05:49:46.054Z,95421.00
2023-05-19T05:50:46.063Z,95419.00
2023-05-19T05:51:58.001Z,95421.00
2023-05-19T05:52:46.072Z,95421.00
2023-05-19T05:53:46.075Z,95417.00
2023-05-19T05:54:45.988Z,95419.00
2023-05-19T05:55:46.013Z,95421.00
2023-05-19T05:56:46.026Z,95419.00
2023-05-19T05:57:46.028Z,95413.00
2023-05-19T05:58:46.109Z,95411.00
2023-05-19T05:59:45.953Z,95413.00
2023-05-19T06:00:45.956Z,95413.00
2023-05-19T06:01:46.035Z,95417.00
2023-05-19T06:02:46.057Z,95411.00
2023-05-19T06:03:46.081Z,95415.00
2023-05-19T06:04:46.076Z,95417.00
2023-05-19T06:05:46.907Z,95413.00
2023-05-19T06:06:46.079Z,95411.00
2023-05-19T06:07:45.976Z,95415.00
2023-05-19T06:08:45.943Z,95413.00
2023-05-19T06:09:45.972Z,95411.00
2023-05-19T06:10:47.338Z,95409.00
2023-05-19T06:11:46.008Z,95409.00
2023-05-19T06:12:45.890Z,95409.00
2023-05-19T06:13:46.034Z,95413.00
2023-05-19T06:14:46.048Z,95409.00
2023-05-19T06:15:46.061Z,95413.00
2023-05-19T06:16:46.018Z,95411.00
2023-05-19T06:17:45.984Z,95413.00
2023-05-19T06:18:46.604Z,95419.00
2023-05-19T06:19:45.914Z,95417.00
2023-05-19T06:20:45.854Z,95415.00
2023-05-19T06:21:45.884Z,95419.00
2023-05-19T06:22:45.988Z,95419.00
2023-05-19T06:23:45.803Z,95421.00
2023-05-19T06:24:45.932Z,95419.00
2023-05-19T06:25:45.891Z,95421.00
2023-05-19T06:26:46.435Z,95423.00
2023-05-19T06:27:46.075Z,95421.00
2023-05-19T06:28:46.133Z,95417.00
2023-05-19T06:29:46.109Z,95421.00
2023-05-19T06:30:46.239Z,95417.00
2023-05-19T06:31:46.548Z,95415.00
2023-05-19T06:32:46.344Z,95417.00
2023-05-19T06:33:48.281Z,95415.00
2023-05-19T06:34:46.501Z,95413.00
2023-05-19T06:35:46.505Z,95413.00
2023-05-19T06:36:46.610Z,95409.00
2023-05-19T06:37:46.610Z,95409.00
2023-05-19T06:38:46.625Z,95409.00
2023-05-19T06:39:46.622Z,95411.00
2023-05-19T06:40:47.585Z,95411.00
2023-05-19T06:41:46.558Z,95411.00
2023-05-19T06:42:46.570Z,95409.00
2023-05-19T06:43:46.587Z,95409.00
2023-05-19T06:44:46.562Z,95409.00
2023-05-19T06:45:46.592Z,95411.00
2023-05-19T06:46:46.611Z,95411.00
2023-05-19T06:47:47.468Z,95413.00
2023-05-19T06:48:46.652Z,95411.00
2023-05-19T06:49:46.582Z,95411.00
2023-05-19T06:50:47.405Z,95415.00
2023-05-19T06:51:48.125Z,95411.00
2023-05-19T06:52:46.474Z,95415.00
2023-05-19T06:53:46.488Z,95411.00
2023-05-19T06:54:46.425Z,95407.00
2023-05-19T06:55:58.112Z,95405.00
2023-05-19T06:56:49.105Z,95411.00
2023-05-19T06:57:47.882Z,95407.00
2023-05-19T06:58:46.580Z,95403.00
2023-05-19T06:59:46.551Z,95403.00
2023-05-19T07:00:46.357Z,95403.00
2023-05-19T07:01:46.466Z,95401.00
2023-05-19T07:02:46.583Z,95405.00
2023-05-19T07:03:46.544Z,95401.00
2023-05-19T07:04:46.482Z,95403.00
2023-05-19T07:05:46.488Z,95399.00
2023-05-19T07:06:46.422Z,95403.00
2023-05-19T07:07:46.487Z,95401.00
2023-05-19T07:08:46.302Z,95399.00
2023-05-19T07:09:46.417Z,95401.00
2023-05-19T07:10:46.423Z,95401.00
2023-05-19T07:11:46.404Z,95401.00
2023-05-19T07:12:46.427Z,95401.00
2023-05-19T07:13:46.423Z,95399.00
2023-05-19T07:14:46.344Z,95403.00
2023-05-19T07:15:46.262Z,95407.00
2023-05-19T07:16:46.661Z,95401.00
2023-05-19T07:17:46.423Z,95403.00
2023-05-19T07:18:46.299Z,95405.00
2023-05-19T07:19:46.256Z,95399.00
2023-05-19T07:20:46.270Z,95399.00
2023-05-19T07:21:46.877Z,95401.00
2023-05-19T07:22:46.533Z,95391.00
2023-05-19T07:23:46.410Z,95401.00
2023-05-19T07:24:46.403Z,95391.00
2023-05-19T07:25:46.427Z,95389.00
2023-05-19T07:26:46.427Z,95391.00
2023-05-19T07:27:46.494Z,95387.00
2023-05-19T07:28:46.421Z,95389.00
2023-05-19T07:29:46.343Z,95389.00
2023-05-19T07:30:46.391Z,95383.00
2023-05-19T07:31:46.382Z,95383.00
2023-05-19T07:32:46.396Z,95379.00
2023-05-19T07:33:46.392Z,95377.00
2023-05-19T07:34:46.469Z,95379.00
2023-05-19T07:35:46.361Z,95376.00
2023-05-19T07:36:46.376Z,95374.00
2023-05-19T07:37:46.319Z,95374.00
2023-05-19T07:38:46.393Z,95376.00
2023-05-19T07:39:46.380Z,95372.00
2023-05-19T07:40:46.348Z,95370.00
2023-05-19T07:41:46.355Z,95372.00
2023-05-19T07:42:46.354Z,95372.00
2023-05-19T07:43:46.359Z,95370.00
2023-05-19T07:44:46.356Z,95368.00
2023-05-19T07:45:46.442Z,95372.00
2023-05-19T07:46:46.380Z,95372.00
2023-05-19T07:47:46.408Z,95374.00
2023-05-19T07:48:46.331Z,95366.00
2023-05-19T07:49:46.337Z,95366.00
2023-05-19T07:50:46.363Z,95364.00
2023-05-19T07:51:46.302Z,95366.00
2023-05-19T07:52:46.933Z,95364.00
2023-05-19T07:53:46.207Z,95364.00
2023-05-19T07:54:46.217Z,95364.00
2023-05-19T07:55:46.210Z,95362.00
2023-05-19T07:56:46.239Z,95362.00
2023-05-19T07:57:46.294Z,95364.00
2023-05-19T07:58:46.240Z,95358.00
2023-05-19T07:59:46.242Z,95360.00
2023-05-19T08:00:46.341Z,95360.00
2023-05-19T08:01:46.569Z,95358.00
2023-05-19T08:02:46.237Z,95356.00
2023-05-19T08:03:46.239Z,95360.00
2023-05-19T08:04:46.289Z,95356.00
2023-05-19T08:05:46.894Z,95358.00
2023-05-19T08:06:46.260Z,95354.00
2023-05-19T08:07:46.190Z,95354.00
2023-05-19T08:08:46.204Z,95354.00
2023-05-19T08:09:46.218Z,95350.00
2023-05-19T08:10:46.919Z,95352.00
2023-05-19T08:11:46.274Z,95354.00
2023-05-19T08:12:46.131Z,95352.00
2023-05-19T08:13:46.108Z,95352.00
2023-05-19T08:14:46.155Z,95348.00
2023-05-19T08:15:46.091Z,95348.00
2023-05-19T08:16:46.134Z,95352.00
2023-05-19T08:17:46.118Z,95348.00
2023-05-19T08:18:46.176Z,95350.00
2023-05-19T08:19:46.116Z,95354.00
2023-05-19T08:20:46.266Z,95350.00
2023-05-19T08:21:46.777Z,95344.00
2023-05-19T08:22:46.095Z,95348.00
2023-05-19T08:23:46.185Z,95340.00
2023-05-19T08:24:46.119Z,95342.00
2023-05-19T08:25:46.053Z,95344.00
2023-05-19T08:26:46.185Z,95346.00
2023-05-19T08:27:46.109Z,95342.00
2023-05-19T08:28:46.096Z,95344.00
2023-05-19T08:29:46.130Z,95346.00
2023-05-19T08:30:46.050Z,95340.00
2023-05-19T08:31:46.102Z,95342.00
2023-05-19T08:32:46.031Z,95338.00
2023-05-19T08:33:46.061Z,95338.00
2023-05-19T08:34:46.059Z,95336.00
2023-05-19T08:35:45.983Z,95336.00
2023-05-19T08:36:46.079Z,95332.00
2023-05-19T08:37:47.030Z,95332.00
2023-05-19T08:38:45.921Z,95332.00
2023-05-19T08:39:45.993Z,95329.00
2023-05-19T08:40:45.937Z,95330.00
2023-05-19T08:41:46.045Z,95321.00
2023-05-19T08:42:45.953Z,95325.00
2023-05-19T08:43:45.991Z,95321.00
2023-05-19T08:44:45.973Z,95325.00
2023-05-19T08:45:46.093Z,95325.00
2023-05-19T08:46:46.036Z,95323.00
2023-05-19T08:47:46.005Z,95325.00
2023-05-19T08:48:45.867Z,95323.00
2023-05-19T08:49:45.966Z,95321.00
2023-05-19T08:50:45.849Z,95313.00
2023-05-19T08:51:46.406Z,95315.00
2023-05-19T08:52:48.872Z,95313.00
2023-05-19T08:53:45.998Z,95311.00
2023-05-19T08:54:45.896Z,95307.00
2023-05-19T08:55:45.813Z,95305.00
2023-05-19T08:56:46.012Z,95303.00
2023-05-19T08:57:45.848Z,95309.00
2023-05-19T08:58:45.855Z,95305.00
2023-05-19T08:59:45.915Z,95305.00
2023-05-19T09:00:45.879Z,95307.00
2023-05-19T09:01:45.954Z,95303.00
2023-05-19T09:02:55.146Z,95299.00
2023-05-19T09:03:46.888Z,95303.00
2023-05-19T09:04:45.803Z,95299.00
2023-05-19T09:05:45.829Z,95301.00
2023-05-19T09:06:45.993Z,95303.00
2023-05-19T09:07:45.986Z,95301.00
2023-05-19T09:08:45.880Z,95301.00
2023-05-19T09:09:45.756Z,95299.00
2023-05-19T09:10:46.289Z,95301.00
2023-05-19T09:11:46.449Z,95299.00
2023-05-19T09:12:46.008Z,95303.00
2023-05-19T09:13:45.796Z,95297.00
2023-05-19T09:14:45.754Z,95299.00
2023-05-19T09:15:45.831Z,95291.00
2023-05-19T09:16:45.890Z,95291.00
2023-05-19T09:17:45.973Z,95285.00
2023-05-19T09:18:46.022Z,95287.00
2023-05-19T09:19:45.947Z,95287.00
2023-05-19T09:20:46.005Z,95285.00
2023-05-19T09:21:45.989Z,95283.00
2023-05-19T09:22:45.990Z,95287.00
2023-05-19T09:23:46.069Z,95280.00
2023-05-19T09:24:46.097Z,95283.00
2023-05-19T09:25:46.222Z,95280.00
2023-05-19T09:26:46.228Z,95276.00
2023-05-19T09:27:46.224Z,95274.00
2023-05-19T09:28:46.318Z,95276.00
2023-05-19T09:29:46.344Z,95276.00
2023-05-19T09:30:46.398Z,95272.00
2023-05-19T09:31:46.513Z,95274.00
2023-05-19T09:32:47.567Z,95266.00
2023-05-19T09:33:46.476Z,95266.00
2023-05-19T09:34:46.486Z,95268.00
2023-05-19T09:35:46.400Z,95268.00
2023-05-19T09:36:46.388Z,95268.00
2023-05-19T09:37:46.382Z,95266.00
2023-05-19T09:38:46.393Z,95262.00
2023-05-19T09:39:46.394Z,95260.00
2023-05-19T09:40:46.395Z,95254.00
2023-05-19T09:41:46.919Z,95256.00
2023-05-19T09:42:46.327Z,95256.00
2023-05-19T09:43:46.348Z,95258.00
2023-05-19T09:44:46.415Z,95258.00
2023-05-19T09:45:46.467Z,95252.00
2023-05-19T09:46:46.532Z,95254.00
2023-05-19T09:47:46.579Z,95256.00
2023-05-19T09:48:46.564Z,95252.00
2023-05-19T09:49:46.595Z,95248.00
2023-05-19T09:50:46.601Z,95248.00
2023-05-19T09:51:46.707Z,95244.00
2023-05-19T09:52:46.698Z,95240.00
2023-05-19T09:53:46.709Z,95240.00
2023-05-19T09:54:46.718Z,95235.00
2023-05-19T09:55:46.818Z,95238.00
2023-05-19T09:56:46.830Z,95240.00
2023-05-19T09:57:47.056Z,95238.00
2023-05-19T09:58:46.863Z,95233.00
2023-05-19T09:59:46.937Z,95233.00
2023-05-19T10:00:46.966Z,95231.00
2023-05-19T10:01:47.125Z,95229.00
2023-05-19T10:02:47.499Z,95229.00
2023-05-19T10:03:47.093Z,95221.00
2023-05-19T10:04:47.087Z,95219.00
2023-05-19T10:05:47.098Z,95215.00
2023-05-19T10:06:47.110Z,95215.00
2023-05-19T10:07:47.212Z,95215.00
2023-05-19T10:08:47.207Z,95209.00
2023-05-19T10:09:47.227Z,95207.00
2023-05-19T10:10:47.238Z,95207.00
2023-05-19T10:11:47.259Z,95205.00
2023-05-19T10:12:47.341Z,95201.00
2023-05-19T10:13:47.355Z,95201.00
2023-05-19T10:14:47.349Z,95201.00
2023-05-19T10:15:58.113Z,95201.00
2023-05-19T10:16:47.403Z,95199.00
2023-05-19T10:17:47.412Z,95197.00
2023-05-19T10:18:47.425Z,95201.00
2023-05-19T10:19:47.345Z,95197.00
2023-05-19T10:20:47.326Z,95193.00
2023-05-19T10:21:47.296Z,95189.00
2023-05-19T10:22:47.326Z,95193.00
2023-05-19T10:23:47.334Z,95189.00
2023-05-19T10:24:47.340Z,95189.00
2023-05-19T10:25:47.322Z,95195.00
2023-05-19T10:26:47.341Z,95189.00
2023-05-19T10:27:47.334Z,95187.00
2023-05-19T10:28:47.355Z,95189.00
2023-05-19T10:29:47.370Z,95183.00
2023-05-19T10:30:47.401Z,95187.00
2023-05-19T10:31:47.485Z,95180.00
2023-05-19T10:32:47.588Z,95183.00
2023-05-19T10:33:47.490Z,95178.00
2023-05-19T10:34:47.512Z,95174.00
2023-05-19T10:35:47.491Z,95172.00
2023-05-19T10:36:47.601Z,95174.00
2023-05-19T10:37:47.684Z,95170.00
2023-05-19T10:38:47.670Z,95168.00
2023-05-19T10:39:47.636Z,95166.00
2023-05-19T10:40:47.668Z,95164.00
2023-05-19T10:41:47.883Z,95162.00
2023-05-19T10:42:47.724Z,95166.00
2023-05-19T10:43:47.688Z,95160.00
2023-05-19T10:44:47.664Z,95162.00
2023-05-19T10:45:47.677Z,95164.00
2023-05-19T10:46:47.725Z,95164.00
2023-05-19T10:47:47.746Z,95166.00
2023-05-19T10:48:47.719Z,95160.00
2023-05-19T10:49:47.619Z,95158.00
2023-05-19T10:50:47.637Z,95154.00
2023-05-19T10:51:47.624Z,95156.00
2023-05-19T10:52:47.724Z,95154.00
2023-05-19T10:53:47.749Z,95150.00
2023-05-19T10:54:47.726Z,95152.00
2023-05-19T10:55:47.749Z,95150.00
2023-05-19T10:56:47.773Z,95148.00
2023-05-19T10:57:47.976Z,95148.00
2023-05-19T10:58:47.885Z,95144.00
2023-05-19T10:59:47.974Z,95148.00
2023-05-19T11:00:47.999Z,95144.00
2023-05-19T11:01:48.027Z,95144.00
2023-05-19T11:02:48.139Z,95142.00
2023-05-19T11:03:48.170Z,95130.00
2023-05-19T11:04:50.270Z,95132.00
2023-05-19T11:05:48.117Z,95134.00
2023-05-19T11:06:48.126Z,95134.00
2023-05-19T11:07:48.113Z,95130.00
2023-05-19T11:08:48.047Z,95134.00
2023-05-19T11:09:48.066Z,95132.00
2023-05-19T11:10:48.177Z,95132.00
2023-05-19T11:11:48.105Z,95134.00
2023-05-19T11:12:48.079Z,95130.00
2023-05-19T11:13:48.074Z,95130.00
2023-05-19T11:14:48.088Z,95127.00
2023-05-19T11:15:48.009Z,95128.00
2023-05-19T11:16:48.082Z,95134.00
2023-05-19T11:17:48.123Z,95134.00
2023-05-19T11:18:48.041Z,95128.00
2023-05-19T11:19:48.033Z,95128.00
2023-05-19T11:20:48.054Z,95123.00
2023-05-19T11:21:48.067Z,95125.00
2023-05-19T11:22:48.033Z,95125.00
2023-05-19T11:23:48.031Z,95123.00
2023-05-19T11:24:47.961Z,95121.00
2023-05-19T11:25:48.043Z,95119.00
2023-05-19T11:26:47.978Z,95119.00
2023-05-19T11:27:47.972Z,95119.00
2023-05-19T11:28:47.981Z,95111.00
2023-05-19T11:29:47.981Z,95115.00
2023-05-19T11:30:47.893Z,95111.00
2023-05-19T11:31:47.959Z,95111.00
2023-05-19T11:32:48.055Z,95109.00
2023-05-19T11:33:47.916Z,95111.00
2023-05-19T11:34:48.003Z,95105.00
2023-05-19T11:35:47.931Z,95103.00
2023-05-19T11:36:47.932Z,95105.00
2023-05-19T11:37:47.948Z,95101.00
2023-05-19T11:38:47.846Z,95097.00
2023-05-19T11:39:47.975Z,95095.00
2023-05-19T11:40:47.833Z,95093.00
2023-05-19T11:41:47.890Z,95101.00
2023-05-19T11:42:47.900Z,95087.00
2023-05-19T11:43:47.874Z,95089.00
2023-05-19T11:44:47.914Z,95089.00
2023-05-19T11:45:47.949Z,95085.00